sensor_id;sensor_type;location;lat;lon;timestamp;temperature;humidity
16076;DHT22;8142;48.242;11.644;2022-08-19T00:00:29;20.10;99.90
16076;DHT22;8142;48.242;11.644;2022-08-19T00:02:55;20.10;99.90
16076;DHT22;8142;48.242;11.644;2022-08-19T00:05:22;20.00;99.90
16076;DHT22;8142;48.242;11.644;2022-08-19T00:07:49;20.00;99.90
16076;DHT22;8142;48.242;11.644;2022-08-19T00:10:15;20.00;99.90
16076;DHT22;8142;48.242;11.644;2022-08-19T00:12:42;20.00;99.90
16076;DHT22;8142;48.242;11.644;2022-08-19T00:15:11;20.00;99.90
16076;DHT22;8142;48.242;11.644;2022-08-19T00:17:42;20.10;99.90
16076;DHT22;8142;48.242;11.644;2022-08-19T00:20:11;20.10;99.90
16076;DHT22;8142;48.242;11.644;2022-08-19T00:22:38;20.10;99.90
16076;DHT22;8142;48.242;11.644;2022-08-19T00:25:05;20.10;99.90
16076;DHT22;8142;48.242;11.644;2022-08-19T00:27:31;20.10;99.90
16076;DHT22;8142;48.242;11.644;2022-08-19T00:29:57;20.10;99.90
16076;DHT22;8142;48.242;11.644;2022-08-19T00:32:24;20.10;99.90
16076;DHT22;8142;48.242;11.644;2022-08-19T00:34:51;20.10;99.90
16076;DHT22;8142;48.242;11.644;2022-08-19T00:37:21;20.20;99.90
16076;DHT22;8142;48.242;11.644;2022-08-19T00:39:49;20.10;99.90
16076;DHT22;8142;48.242;11.644;2022-08-19T00:42:17;20.10;99.90
16076;DHT22;8142;48.242;11.644;2022-08-19T00:44:43;20.10;99.90
16076;DHT22;8142;48.242;11.644;2022-08-19T00:47:10;20.10;99.90
16076;DHT22;8142;48.242;11.644;2022-08-19T00:49:50;20.10;99.90
16076;DHT22;8142;48.242;11.644;2022-08-19T00:52:23;20.10;99.90
16076;DHT22;8142;48.242;11.644;2022-08-19T00:54:50;20.10;99.90
16076;DHT22;8142;48.242;11.644;2022-08-19T00:57:22;20.10;99.90
16076;DHT22;8142;48.242;11.644;2022-08-19T00:59:52;20.10;99.90
16076;DHT22;8142;48.242;11.644;2022-08-19T01:02:20;20.10;99.90
16076;DHT22;8142;48.242;11.644;2022-08-19T01:04:46;20.10;99.90
16076;DHT22;8142;48.242;11.644;2022-08-19T01:07:12;20.00;99.90
16076;DHT22;8142;48.242;11.644;2022-08-19T01:09:38;20.00;99.90
16076;DHT22;8142;48.242;11.644;2022-08-19T01:12:04;20.00;99.90
16076;DHT22;8142;48.242;11.644;2022-08-19T01:14:30;20.00;99.90
16076;DHT22;8142;48.242;11.644;2022-08-19T01:16:57;20.00;99.90
16076;DHT22;8142;48.242;11.644;2022-08-19T01:19:37;20.00;99.90
16076;DHT22;8142;48.242;11.644;2022-08-19T01:22:11;20.00;99.90
16076;DHT22;8142;48.242;11.644;2022-08-19T01:24:39;20.00;99.90
16076;DHT22;8142;48.242;11.644;2022-08-19T01:27:06;20.10;99.90
16076;DHT22;8142;48.242;11.644;2022-08-19T01:29:33;20.00;99.90
16076;DHT22;8142;48.242;11.644;2022-08-19T01:32:01;20.00;99.90
16076;DHT22;8142;48.242;11.644;2022-08-19T01:34:27;20.00;99.90
16076;DHT22;8142;48.242;11.644;2022-08-19T01:36:53;20.00;99.90
16076;DHT22;8142;48.242;11.644;2022-08-19T01:39:22;20.00;99.90
16076;DHT22;8142;48.242;11.644;2022-08-19T01:41:48;20.00;99.90
16076;DHT22;8142;48.242;11.644;2022-08-19T01:44:15;20.00;99.90
16076;DHT22;8142;48.242;11.644;2022-08-19T01:46:42;20.00;99.90
16076;DHT22;8142;48.242;11.644;2022-08-19T01:49:09;20.00;99.90
16076;DHT22;8142;48.242;11.644;2022-08-19T01:51:36;20.00;99.90
16076;DHT22;8142;48.242;11.644;2022-08-19T01:54:02;20.00;99.90
16076;DHT22;8142;48.242;11.644;2022-08-19T01:56:28;20.00;99.90
16076;DHT22;8142;48.242;11.644;2022-08-19T01:59:00;19.90;99.90
16076;DHT22;8142;48.242;11.644;2022-08-19T02:01:26;20.00;99.90
16076;DHT22;8142;48.242;11.644;2022-08-19T02:03:52;20.00;99.90
16076;DHT22;8142;48.242;11.644;2022-08-19T02:06:19;20.00;99.90
16076;DHT22;8142;48.242;11.644;2022-08-19T02:08:45;20.00;99.90
16076;DHT22;8142;48.242;11.644;2022-08-19T02:11:28;20.00;99.90
16076;DHT22;8142;48.242;11.644;2022-08-19T02:13:57;20.00;99.90
16076;DHT22;8142;48.242;11.644;2022-08-19T02:16:24;20.10;99.90
16076;DHT22;8142;48.242;11.644;2022-08-19T02:18:50;20.00;99.90
16076;DHT22;8142;48.242;11.644;2022-08-19T02:21:17;20.10;99.90
16076;DHT22;8142;48.242;11.644;2022-08-19T02:23:44;20.10;99.90
16076;DHT22;8142;48.242;11.644;2022-08-19T02:26:11;20.00;99.90
16076;DHT22;8142;48.242;11.644;2022-08-19T02:28:38;20.00;99.90
16076;DHT22;8142;48.242;11.644;2022-08-19T02:31:12;20.00;99.90
16076;DHT22;8142;48.242;11.644;2022-08-19T02:33:38;20.00;99.90
16076;DHT22;8142;48.242;11.644;2022-08-19T02:36:05;20.10;99.90
16076;DHT22;8142;48.242;11.644;2022-08-19T02:38:32;20.10;99.90
16076;DHT22;8142;48.242;11.644;2022-08-19T02:41:02;20.10;99.90
16076;DHT22;8142;48.242;11.644;2022-08-19T02:43:31;20.10;99.90
16076;DHT22;8142;48.242;11.644;2022-08-19T02:45:57;20.00;99.90
16076;DHT22;8142;48.242;11.644;2022-08-19T02:48:24;20.00;99.90
16076;DHT22;8142;48.242;11.644;2022-08-19T02:50:52;20.10;99.90
16076;DHT22;8142;48.242;11.644;2022-08-19T02:53:25;20.00;99.90
16076;DHT22;8142;48.242;11.644;2022-08-19T02:55:52;20.10;99.90
16076;DHT22;8142;48.242;11.644;2022-08-19T02:58:19;20.20;99.90
16076;DHT22;8142;48.242;11.644;2022-08-19T03:00:48;20.10;99.90
16076;DHT22;8142;48.242;11.644;2022-08-19T03:03:15;20.10;99.90
16076;DHT22;8142;48.242;11.644;2022-08-19T03:05:42;20.10;99.90
16076;DHT22;8142;48.242;11.644;2022-08-19T03:08:08;20.10;99.90
16076;DHT22;8142;48.242;11.644;2022-08-19T03:10:46;20.10;99.90
16076;DHT22;8142;48.242;11.644;2022-08-19T03:13:16;20.10;99.90
16076;DHT22;8142;48.242;11.644;2022-08-19T03:15:44;20.10;99.90
16076;DHT22;8142;48.242;11.644;2022-08-19T03:18:11;20.10;99.90
16076;DHT22;8142;48.242;11.644;2022-08-19T03:20:46;20.00;99.90
16076;DHT22;8142;48.242;11.644;2022-08-19T03:23:13;20.00;99.90
16076;DHT22;8142;48.242;11.644;2022-08-19T03:25:41;20.00;99.90
16076;DHT22;8142;48.242;11.644;2022-08-19T03:28:13;20.00;99.90
16076;DHT22;8142;48.242;11.644;2022-08-19T03:30:41;20.00;99.90
16076;DHT22;8142;48.242;11.644;2022-08-19T03:33:09;20.00;99.90
16076;DHT22;8142;48.242;11.644;2022-08-19T03:35:35;20.00;99.90
16076;DHT22;8142;48.242;11.644;2022-08-19T03:38:05;20.00;99.90
16076;DHT22;8142;48.242;11.644;2022-08-19T03:40:35;20.00;99.90
16076;DHT22;8142;48.242;11.644;2022-08-19T03:43:02;20.00;99.90
16076;DHT22;8142;48.242;11.644;2022-08-19T03:45:28;20.00;99.90
16076;DHT22;8142;48.242;11.644;2022-08-19T03:47:55;20.00;99.90
16076;DHT22;8142;48.242;11.644;2022-08-19T03:50:21;20.00;99.90
16076;DHT22;8142;48.242;11.644;2022-08-19T03:52:51;20.00;99.90
16076;DHT22;8142;48.242;11.644;2022-08-19T03:55:18;20.00;99.90
16076;DHT22;8142;48.242;11.644;2022-08-19T03:57:44;20.00;99.90
16076;DHT22;8142;48.242;11.644;2022-08-19T04:00:12;20.00;99.90
16076;DHT22;8142;48.242;11.644;2022-08-19T04:02:38;20.00;99.90
16076;DHT22;8142;48.242;11.644;2022-08-19T04:05:04;20.10;99.90
16076;DHT22;8142;48.242;11.644;2022-08-19T04:07:30;20.00;99.90
16076;DHT22;8142;48.242;11.644;2022-08-19T04:09:56;20.00;99.90
16076;DHT22;8142;48.242;11.644;2022-08-19T04:12:22;20.00;99.90
16076;DHT22;8142;48.242;11.644;2022-08-19T04:14:48;20.00;99.90
16076;DHT22;8142;48.242;11.644;2022-08-19T04:17:14;20.00;99.90
16076;DHT22;8142;48.242;11.644;2022-08-19T04:19:40;20.00;99.90
16076;DHT22;8142;48.242;11.644;2022-08-19T04:22:07;20.00;99.90
16076;DHT22;8142;48.242;11.644;2022-08-19T04:24:34;20.00;99.90
16076;DHT22;8142;48.242;11.644;2022-08-19T04:27:01;20.10;99.90
16076;DHT22;8142;48.242;11.644;2022-08-19T04:29:28;20.00;99.90
16076;DHT22;8142;48.242;11.644;2022-08-19T04:31:56;20.00;99.90
16076;DHT22;8142;48.242;11.644;2022-08-19T04:34:25;20.10;99.90
16076;DHT22;8142;48.242;11.644;2022-08-19T04:36:53;20.00;99.90
16076;DHT22;8142;48.242;11.644;2022-08-19T04:39:23;20.00;99.90
16076;DHT22;8142;48.242;11.644;2022-08-19T04:42:09;20.00;99.90
16076;DHT22;8142;48.242;11.644;2022-08-19T04:44:54;20.00;99.90
16076;DHT22;8142;48.242;11.644;2022-08-19T04:47:20;20.10;99.90
16076;DHT22;8142;48.242;11.644;2022-08-19T04:49:45;20.10;99.90
16076;DHT22;8142;48.242;11.644;2022-08-19T04:52:12;20.10;99.90
16076;DHT22;8142;48.242;11.644;2022-08-19T04:54:38;20.10;99.90
16076;DHT22;8142;48.242;11.644;2022-08-19T04:57:04;20.10;99.90
16076;DHT22;8142;48.242;11.644;2022-08-19T04:59:32;20.10;99.90
16076;DHT22;8142;48.242;11.644;2022-08-19T05:01:59;20.20;99.90
16076;DHT22;8142;48.242;11.644;2022-08-19T05:04:24;20.10;99.90
16076;DHT22;8142;48.242;11.644;2022-08-19T05:06:50;20.10;99.90
16076;DHT22;8142;48.242;11.644;2022-08-19T05:09:17;20.20;99.90
16076;DHT22;8142;48.242;11.644;2022-08-19T05:11:44;20.20;99.90
16076;DHT22;8142;48.242;11.644;2022-08-19T05:14:11;20.20;99.90
16076;DHT22;8142;48.242;11.644;2022-08-19T05:16:39;20.20;99.90
16076;DHT22;8142;48.242;11.644;2022-08-19T05:19:05;20.20;99.90
16076;DHT22;8142;48.242;11.644;2022-08-19T05:21:49;20.20;99.90
16076;DHT22;8142;48.242;11.644;2022-08-19T05:24:34;20.20;99.90
16076;DHT22;8142;48.242;11.644;2022-08-19T05:27:01;20.20;99.90
16076;DHT22;8142;48.242;11.644;2022-08-19T05:29:29;20.20;99.90
16076;DHT22;8142;48.242;11.644;2022-08-19T05:31:58;20.20;99.90
16076;DHT22;8142;48.242;11.644;2022-08-19T05:34:25;20.20;99.90
16076;DHT22;8142;48.242;11.644;2022-08-19T05:36:57;20.20;99.90
16076;DHT22;8142;48.242;11.644;2022-08-19T05:39:25;20.20;99.90
16076;DHT22;8142;48.242;11.644;2022-08-19T05:41:57;20.20;99.90
16076;DHT22;8142;48.242;11.644;2022-08-19T05:44:28;20.20;99.90
16076;DHT22;8142;48.242;11.644;2022-08-19T05:47:02;20.20;99.90
16076;DHT22;8142;48.242;11.644;2022-08-19T05:49:30;20.30;99.90
16076;DHT22;8142;48.242;11.644;2022-08-19T05:51:57;20.20;99.90
16076;DHT22;8142;48.242;11.644;2022-08-19T05:54:25;20.20;99.90
16076;DHT22;8142;48.242;11.644;2022-08-19T05:56:52;20.30;99.90
16076;DHT22;8142;48.242;11.644;2022-08-19T05:59:20;20.30;99.90
16076;DHT22;8142;48.242;11.644;2022-08-19T06:01:48;20.30;99.90
16076;DHT22;8142;48.242;11.644;2022-08-19T06:04:18;20.30;99.90
16076;DHT22;8142;48.242;11.644;2022-08-19T06:06:46;20.30;99.90
16076;DHT22;8142;48.242;11.644;2022-08-19T06:09:13;20.30;99.90
16076;DHT22;8142;48.242;11.644;2022-08-19T06:11:48;20.30;99.90
16076;DHT22;8142;48.242;11.644;2022-08-19T06:14:17;20.20;99.90
16076;DHT22;8142;48.242;11.644;2022-08-19T06:16:44;20.30;99.90
16076;DHT22;8142;48.242;11.644;2022-08-19T06:19:13;20.30;99.90
16076;DHT22;8142;48.242;11.644;2022-08-19T06:21:42;20.30;99.90
16076;DHT22;8142;48.242;11.644;2022-08-19T06:24:11;20.30;99.90
16076;DHT22;8142;48.242;11.644;2022-08-19T06:26:44;20.40;99.90
16076;DHT22;8142;48.242;11.644;2022-08-19T06:29:12;20.40;99.90
16076;DHT22;8142;48.242;11.644;2022-08-19T06:31:41;20.40;99.90
16076;DHT22;8142;48.242;11.644;2022-08-19T06:34:08;20.40;99.90
16076;DHT22;8142;48.242;11.644;2022-08-19T06:36:46;20.40;99.90
16076;DHT22;8142;48.242;11.644;2022-08-19T06:39:18;20.50;99.90
16076;DHT22;8142;48.242;11.644;2022-08-19T06:41:47;20.40;99.90
16076;DHT22;8142;48.242;11.644;2022-08-19T06:44:14;20.40;99.90
16076;DHT22;8142;48.242;11.644;2022-08-19T06:46:41;20.50;99.90
16076;DHT22;8142;48.242;11.644;2022-08-19T06:49:08;20.50;99.90
16076;DHT22;8142;48.242;11.644;2022-08-19T06:51:44;20.50;99.90
16076;DHT22;8142;48.242;11.644;2022-08-19T06:54:10;20.40;99.90
16076;DHT22;8142;48.242;11.644;2022-08-19T06:56:37;20.50;99.90
16076;DHT22;8142;48.242;11.644;2022-08-19T06:59:12;20.50;99.90
16076;DHT22;8142;48.242;11.644;2022-08-19T07:01:49;20.50;99.90
16076;DHT22;8142;48.242;11.644;2022-08-19T07:04:18;20.60;99.90
16076;DHT22;8142;48.242;11.644;2022-08-19T07:06:44;20.50;99.90
16076;DHT22;8142;48.242;11.644;2022-08-19T07:09:15;20.50;99.90
16076;DHT22;8142;48.242;11.644;2022-08-19T07:11:46;20.60;99.90
16076;DHT22;8142;48.242;11.644;2022-08-19T07:14:13;20.60;99.90
16076;DHT22;8142;48.242;11.644;2022-08-19T07:16:40;20.60;99.90
16076;DHT22;8142;48.242;11.644;2022-08-19T07:19:05;20.60;99.90
16076;DHT22;8142;48.242;11.644;2022-08-19T07:21:32;20.60;99.90
16076;DHT22;8142;48.242;11.644;2022-08-19T07:23:59;20.50;99.90
16076;DHT22;8142;48.242;11.644;2022-08-19T07:26:31;20.60;99.90
16076;DHT22;8142;48.242;11.644;2022-08-19T07:28:58;20.60;99.90
16076;DHT22;8142;48.242;11.644;2022-08-19T07:31:26;20.60;99.90
16076;DHT22;8142;48.242;11.644;2022-08-19T07:33:55;20.60;99.90
16076;DHT22;8142;48.242;11.644;2022-08-19T07:36:27;20.60;99.90
16076;DHT22;8142;48.242;11.644;2022-08-19T07:38:56;20.70;99.90
16076;DHT22;8142;48.242;11.644;2022-08-19T07:41:24;20.60;99.90
16076;DHT22;8142;48.242;11.644;2022-08-19T07:43:51;20.70;99.90
16076;DHT22;8142;48.242;11.644;2022-08-19T07:46:18;20.70;99.90
16076;DHT22;8142;48.242;11.644;2022-08-19T07:48:47;20.70;99.90
16076;DHT22;8142;48.242;11.644;2022-08-19T07:51:16;20.80;99.90
16076;DHT22;8142;48.242;11.644;2022-08-19T07:53:42;20.80;99.90
16076;DHT22;8142;48.242;11.644;2022-08-19T07:56:11;20.90;99.90
16076;DHT22;8142;48.242;11.644;2022-08-19T07:58:40;20.90;99.90
16076;DHT22;8142;48.242;11.644;2022-08-19T08:01:08;20.90;99.90
16076;DHT22;8142;48.242;11.644;2022-08-19T08:03:36;21.00;99.90
16076;DHT22;8142;48.242;11.644;2022-08-19T08:06:20;20.90;99.90
16076;DHT22;8142;48.242;11.644;2022-08-19T08:09:06;20.90;99.90
16076;DHT22;8142;48.242;11.644;2022-08-19T08:11:43;20.90;99.90
16076;DHT22;8142;48.242;11.644;2022-08-19T08:14:20;20.90;99.90
16076;DHT22;8142;48.242;11.644;2022-08-19T08:16:47;20.90;99.90
16076;DHT22;8142;48.242;11.644;2022-08-19T08:19:14;20.90;99.90
16076;DHT22;8142;48.242;11.644;2022-08-19T08:21:41;20.90;99.90
16076;DHT22;8142;48.242;11.644;2022-08-19T08:24:07;20.90;99.90
16076;DHT22;8142;48.242;11.644;2022-08-19T08:26:33;20.80;99.90
16076;DHT22;8142;48.242;11.644;2022-08-19T08:28:59;20.80;99.90
16076;DHT22;8142;48.242;11.644;2022-08-19T08:31:25;20.80;99.90
16076;DHT22;8142;48.242;11.644;2022-08-19T08:33:51;20.80;99.90
16076;DHT22;8142;48.242;11.644;2022-08-19T08:36:17;20.80;99.90
16076;DHT22;8142;48.242;11.644;2022-08-19T08:38:44;20.80;99.90
16076;DHT22;8142;48.242;11.644;2022-08-19T08:44:17;20.80;99.90
16076;DHT22;8142;48.242;11.644;2022-08-19T08:46:48;20.80;99.90
16076;DHT22;8142;48.242;11.644;2022-08-19T08:52:11;20.80;99.90
16076;DHT22;8142;48.242;11.644;2022-08-19T08:54:44;20.80;99.90
16076;DHT22;8142;48.242;11.644;2022-08-19T08:57:27;20.80;99.90
16076;DHT22;8142;48.242;11.644;2022-08-19T08:59:54;20.80;99.90
16076;DHT22;8142;48.242;11.644;2022-08-19T09:02:22;20.90;99.90
16076;DHT22;8142;48.242;11.644;2022-08-19T09:04:48;20.80;99.90
16076;DHT22;8142;48.242;11.644;2022-08-19T09:07:36;20.80;99.90
16076;DHT22;8142;48.242;11.644;2022-08-19T09:10:22;20.80;99.90
16076;DHT22;8142;48.242;11.644;2022-08-19T09:13:07;20.90;99.90
16076;DHT22;8142;48.242;11.644;2022-08-19T09:15:47;20.90;99.90
16076;DHT22;8142;48.242;11.644;2022-08-19T09:18:14;20.90;99.90
16076;DHT22;8142;48.242;11.644;2022-08-19T09:20:42;20.90;99.90
16076;DHT22;8142;48.242;11.644;2022-08-19T09:23:08;20.90;99.90
16076;DHT22;8142;48.242;11.644;2022-08-19T09:25:34;20.90;99.90
16076;DHT22;8142;48.242;11.644;2022-08-19T09:28:01;20.90;99.90
16076;DHT22;8142;48.242;11.644;2022-08-19T09:30:34;20.90;99.90
16076;DHT22;8142;48.242;11.644;2022-08-19T09:33:00;20.90;99.90
16076;DHT22;8142;48.242;11.644;2022-08-19T09:35:28;20.90;99.90
16076;DHT22;8142;48.242;11.644;2022-08-19T09:37:55;20.90;99.90
16076;DHT22;8142;48.242;11.644;2022-08-19T09:40:22;20.90;99.90
16076;DHT22;8142;48.242;11.644;2022-08-19T09:42:48;20.90;99.90
16076;DHT22;8142;48.242;11.644;2022-08-19T09:45:16;20.90;99.90
16076;DHT22;8142;48.242;11.644;2022-08-19T09:47:43;20.80;99.90
16076;DHT22;8142;48.242;11.644;2022-08-19T09:50:11;20.80;99.90
16076;DHT22;8142;48.242;11.644;2022-08-19T09:52:37;20.90;99.90
16076;DHT22;8142;48.242;11.644;2022-08-19T09:55:08;20.90;99.90
16076;DHT22;8142;48.242;11.644;2022-08-19T09:57:34;20.80;99.90
16076;DHT22;8142;48.242;11.644;2022-08-19T10:00:00;20.90;99.90
16076;DHT22;8142;48.242;11.644;2022-08-19T10:02:26;20.90;99.90
16076;DHT22;8142;48.242;11.644;2022-08-19T10:04:52;20.90;99.90
16076;DHT22;8142;48.242;11.644;2022-08-19T10:07:36;21.00;99.90
16076;DHT22;8142;48.242;11.644;2022-08-19T10:10:04;21.10;99.90
16076;DHT22;8142;48.242;11.644;2022-08-19T10:12:32;21.20;99.90
16076;DHT22;8142;48.242;11.644;2022-08-19T10:14:59;21.30;99.90
16076;DHT22;8142;48.242;11.644;2022-08-19T10:17:25;21.40;99.90
16076;DHT22;8142;48.242;11.644;2022-08-19T10:19:52;21.50;99.90
16076;DHT22;8142;48.242;11.644;2022-08-19T10:22:19;21.60;99.90
16076;DHT22;8142;48.242;11.644;2022-08-19T10:24:48;21.70;99.90
16076;DHT22;8142;48.242;11.644;2022-08-19T10:27:15;21.70;99.90
16076;DHT22;8142;48.242;11.644;2022-08-19T10:29:41;21.80;99.90
16076;DHT22;8142;48.242;11.644;2022-08-19T10:32:08;21.90;99.90
16076;DHT22;8142;48.242;11.644;2022-08-19T10:34:36;21.90;99.90
16076;DHT22;8142;48.242;11.644;2022-08-19T10:37:03;21.90;99.90
16076;DHT22;8142;48.242;11.644;2022-08-19T10:39:32;21.90;99.90
16076;DHT22;8142;48.242;11.644;2022-08-19T10:41:59;21.90;99.90
16076;DHT22;8142;48.242;11.644;2022-08-19T10:44:29;21.90;99.90
16076;DHT22;8142;48.242;11.644;2022-08-19T10:46:55;21.90;99.90
16076;DHT22;8142;48.242;11.644;2022-08-19T10:49:21;22.00;99.90
16076;DHT22;8142;48.242;11.644;2022-08-19T10:51:49;22.00;99.90
16076;DHT22;8142;48.242;11.644;2022-08-19T10:54:34;22.00;99.90
16076;DHT22;8142;48.242;11.644;2022-08-19T10:57:20;22.10;99.90
16076;DHT22;8142;48.242;11.644;2022-08-19T10:59:45;22.10;99.90
16076;DHT22;8142;48.242;11.644;2022-08-19T11:02:12;22.10;99.90
16076;DHT22;8142;48.242;11.644;2022-08-19T11:04:39;22.10;99.90
16076;DHT22;8142;48.242;11.644;2022-08-19T11:07:05;22.20;99.90
16076;DHT22;8142;48.242;11.644;2022-08-19T11:09:37;22.20;99.90
16076;DHT22;8142;48.242;11.644;2022-08-19T11:12:04;22.20;99.90
16076;DHT22;8142;48.242;11.644;2022-08-19T11:14:31;22.20;99.90
16076;DHT22;8142;48.242;11.644;2022-08-19T11:16:58;22.30;99.90
16076;DHT22;8142;48.242;11.644;2022-08-19T11:19:24;22.30;99.90
16076;DHT22;8142;48.242;11.644;2022-08-19T11:21:51;22.40;99.90
16076;DHT22;8142;48.242;11.644;2022-08-19T11:24:23;22.40;99.90
16076;DHT22;8142;48.242;11.644;2022-08-19T11:26:51;22.50;99.90
16076;DHT22;8142;48.242;11.644;2022-08-19T11:29:19;22.50;99.90
16076;DHT22;8142;48.242;11.644;2022-08-19T11:31:48;22.50;99.90
16076;DHT22;8142;48.242;11.644;2022-08-19T11:34:22;22.60;99.90
16076;DHT22;8142;48.242;11.644;2022-08-19T11:36:49;22.70;99.90
16076;DHT22;8142;48.242;11.644;2022-08-19T11:39:20;22.60;99.90
16076;DHT22;8142;48.242;11.644;2022-08-19T11:41:46;22.70;99.90
16076;DHT22;8142;48.242;11.644;2022-08-19T11:44:12;22.60;99.90
16076;DHT22;8142;48.242;11.644;2022-08-19T11:46:41;22.70;99.90
16076;DHT22;8142;48.242;11.644;2022-08-19T11:49:09;22.70;99.90
16076;DHT22;8142;48.242;11.644;2022-08-19T11:51:35;22.70;99.90
16076;DHT22;8142;48.242;11.644;2022-08-19T11:54:01;22.60;99.90
16076;DHT22;8142;48.242;11.644;2022-08-19T11:56:27;22.70;99.90
16076;DHT22;8142;48.242;11.644;2022-08-19T11:58:54;22.70;99.90
16076;DHT22;8142;48.242;11.644;2022-08-19T12:01:23;22.70;99.90
16076;DHT22;8142;48.242;11.644;2022-08-19T12:03:51;22.70;99.90
16076;DHT22;8142;48.242;11.644;2022-08-19T12:06:21;22.70;99.90
16076;DHT22;8142;48.242;11.644;2022-08-19T12:08:51;22.70;99.90
16076;DHT22;8142;48.242;11.644;2022-08-19T12:11:17;22.70;99.90
16076;DHT22;8142;48.242;11.644;2022-08-19T12:13:43;22.70;99.90
16076;DHT22;8142;48.242;11.644;2022-08-19T12:16:16;22.70;99.90
16076;DHT22;8142;48.242;11.644;2022-08-19T12:18:43;22.80;99.90
16076;DHT22;8142;48.242;11.644;2022-08-19T12:21:16;22.80;99.90
16076;DHT22;8142;48.242;11.644;2022-08-19T12:23:42;22.80;99.90
16076;DHT22;8142;48.242;11.644;2022-08-19T12:26:10;22.80;99.90
16076;DHT22;8142;48.242;11.644;2022-08-19T12:28:36;22.80;99.90
16076;DHT22;8142;48.242;11.644;2022-08-19T12:31:03;22.80;99.90
16076;DHT22;8142;48.242;11.644;2022-08-19T12:33:29;22.90;99.90
16076;DHT22;8142;48.242;11.644;2022-08-19T12:35:55;22.90;99.90
16076;DHT22;8142;48.242;11.644;2022-08-19T12:38:25;22.90;99.90
16076;DHT22;8142;48.242;11.644;2022-08-19T12:40:51;23.00;99.90
16076;DHT22;8142;48.242;11.644;2022-08-19T12:43:19;23.00;99.90
16076;DHT22;8142;48.242;11.644;2022-08-19T12:45:46;23.00;99.90
16076;DHT22;8142;48.242;11.644;2022-08-19T12:48:12;23.00;99.90
16076;DHT22;8142;48.242;11.644;2022-08-19T12:50:42;23.10;99.90
16076;DHT22;8142;48.242;11.644;2022-08-19T12:53:10;23.10;99.90
16076;DHT22;8142;48.242;11.644;2022-08-19T12:55:36;23.10;99.90
16076;DHT22;8142;48.242;11.644;2022-08-19T12:58:02;23.10;99.90
16076;DHT22;8142;48.242;11.644;2022-08-19T13:00:28;23.10;99.90
16076;DHT22;8142;48.242;11.644;2022-08-19T13:02:54;23.10;99.90
16076;DHT22;8142;48.242;11.644;2022-08-19T13:05:23;23.10;99.90
16076;DHT22;8142;48.242;11.644;2022-08-19T13:07:51;23.10;99.90
16076;DHT22;8142;48.242;11.644;2022-08-19T13:10:20;23.20;99.90
16076;DHT22;8142;48.242;11.644;2022-08-19T13:12:49;23.20;99.90
16076;DHT22;8142;48.242;11.644;2022-08-19T13:15:17;23.20;99.90
16076;DHT22;8142;48.242;11.644;2022-08-19T13:17:47;23.20;99.90
16076;DHT22;8142;48.242;11.644;2022-08-19T13:20:16;23.20;99.90
16076;DHT22;8142;48.242;11.644;2022-08-19T13:22:42;23.20;99.90
16076;DHT22;8142;48.242;11.644;2022-08-19T13:25:08;23.20;99.90
16076;DHT22;8142;48.242;11.644;2022-08-19T13:27:35;23.20;99.90
16076;DHT22;8142;48.242;11.644;2022-08-19T13:30:04;23.10;99.90
16076;DHT22;8142;48.242;11.644;2022-08-19T13:32:50;23.10;99.90
16076;DHT22;8142;48.242;11.644;2022-08-19T13:35:34;23.00;99.90
16076;DHT22;8142;48.242;11.644;2022-08-19T13:38:00;23.00;99.90
16076;DHT22;8142;48.242;11.644;2022-08-19T13:40:31;22.90;99.90
16076;DHT22;8142;48.242;11.644;2022-08-19T13:43:00;22.90;99.90
16076;DHT22;8142;48.242;11.644;2022-08-19T13:45:28;22.90;99.90
16076;DHT22;8142;48.242;11.644;2022-08-19T13:47:56;22.90;99.90
16076;DHT22;8142;48.242;11.644;2022-08-19T13:50:24;22.90;99.90
16076;DHT22;8142;48.242;11.644;2022-08-19T13:52:54;22.90;99.90
16076;DHT22;8142;48.242;11.644;2022-08-19T13:55:21;22.90;99.90
16076;DHT22;8142;48.242;11.644;2022-08-19T13:57:55;22.90;99.90
16076;DHT22;8142;48.242;11.644;2022-08-19T14:00:23;22.80;99.90
16076;DHT22;8142;48.242;11.644;2022-08-19T14:02:51;22.80;99.90
16076;DHT22;8142;48.242;11.644;2022-08-19T14:05:18;22.80;99.90
16076;DHT22;8142;48.242;11.644;2022-08-19T14:07:44;22.80;99.90
16076;DHT22;8142;48.242;11.644;2022-08-19T14:10:12;22.70;99.90
16076;DHT22;8142;48.242;11.644;2022-08-19T14:12:39;22.70;99.90
16076;DHT22;8142;48.242;11.644;2022-08-19T14:15:07;22.80;99.90
16076;DHT22;8142;48.242;11.644;2022-08-19T14:17:33;22.80;99.90
16076;DHT22;8142;48.242;11.644;2022-08-19T14:20:02;22.80;99.90
16076;DHT22;8142;48.242;11.644;2022-08-19T14:22:33;22.80;99.90
16076;DHT22;8142;48.242;11.644;2022-08-19T14:24:59;22.90;99.90
16076;DHT22;8142;48.242;11.644;2022-08-19T14:27:25;22.80;99.90
16076;DHT22;8142;48.242;11.644;2022-08-19T14:29:51;22.80;99.90
16076;DHT22;8142;48.242;11.644;2022-08-19T14:32:17;22.90;99.90
16076;DHT22;8142;48.242;11.644;2022-08-19T14:34:44;22.90;99.90
16076;DHT22;8142;48.242;11.644;2022-08-19T14:37:12;22.90;99.90
16076;DHT22;8142;48.242;11.644;2022-08-19T14:39:40;22.90;99.90
16076;DHT22;8142;48.242;11.644;2022-08-19T14:42:09;22.80;99.90
16076;DHT22;8142;48.242;11.644;2022-08-19T14:44:36;22.80;99.90
16076;DHT22;8142;48.242;11.644;2022-08-19T14:47:02;22.80;99.90
16076;DHT22;8142;48.242;11.644;2022-08-19T14:49:28;22.80;99.90
16076;DHT22;8142;48.242;11.644;2022-08-19T14:51:54;22.80;99.90
16076;DHT22;8142;48.242;11.644;2022-08-19T14:54:20;22.90;99.90
16076;DHT22;8142;48.242;11.644;2022-08-19T14:56:47;22.80;99.90
16076;DHT22;8142;48.242;11.644;2022-08-19T14:59:13;22.90;99.90
16076;DHT22;8142;48.242;11.644;2022-08-19T15:01:39;22.90;99.90
16076;DHT22;8142;48.242;11.644;2022-08-19T15:04:05;22.90;99.90
16076;DHT22;8142;48.242;11.644;2022-08-19T15:06:31;22.90;99.90
16076;DHT22;8142;48.242;11.644;2022-08-19T15:08:58;22.90;99.90
16076;DHT22;8142;48.242;11.644;2022-08-19T15:11:26;22.90;99.90
16076;DHT22;8142;48.242;11.644;2022-08-19T15:13:54;22.90;99.90
16076;DHT22;8142;48.242;11.644;2022-08-19T15:16:22;22.80;99.90
16076;DHT22;8142;48.242;11.644;2022-08-19T15:18:50;22.80;99.90
16076;DHT22;8142;48.242;11.644;2022-08-19T15:21:17;22.80;99.90
16076;DHT22;8142;48.242;11.644;2022-08-19T15:23:47;22.80;99.90
16076;DHT22;8142;48.242;11.644;2022-08-19T15:26:14;22.70;99.90
16076;DHT22;8142;48.242;11.644;2022-08-19T15:28:41;22.70;99.90
16076;DHT22;8142;48.242;11.644;2022-08-19T15:31:07;22.70;99.90
16076;DHT22;8142;48.242;11.644;2022-08-19T15:33:35;22.70;99.90
16076;DHT22;8142;48.242;11.644;2022-08-19T15:36:06;22.60;99.90
16076;DHT22;8142;48.242;11.644;2022-08-19T15:38:33;22.60;99.90
16076;DHT22;8142;48.242;11.644;2022-08-19T15:41:03;22.50;99.90
16076;DHT22;8142;48.242;11.644;2022-08-19T15:46:19;22.50;99.90